Time;durP1;ratioP1;P1;durP2;ratioP2;P2;SDS_P1;SDS_P2;PMS_P1;PMS_P2;Temp;Humidity;BMP_temperature;BMP_pressure;BME280_temperature;BME280_humidity;BME280_pressure;Samples;Min_cycle;Max_cycle;Signal;HPM_P1;HPM_P2
2022/06/19 00:00:29;;;;;;;1999.90;999.90;;;13.40;99.90;;;;;;5064845;28;20093;-77
2022/06/19 00:02:55;;;;;;;1999.90;999.90;;;13.30;99.90;;;;;;5075063;28;20501;-78
2022/06/19 00:05:21;;;;;;;1999.90;999.90;;;13.30;99.90;;;;;;5069383;28;20040;-78
2022/06/19 00:07:46;;;;;;;1999.90;999.90;;;13.30;99.90;;;;;;5054069;28;20036;-78
2022/06/19 00:10:13;;;;;;;1999.90;999.90;;;13.30;99.90;;;;;;5088325;28;20417;-78
2022/06/19 00:12:39;;;;;;;1999.90;999.90;;;13.20;99.90;;;;;;5066679;28;20405;-78
2022/06/19 00:15:05;;;;;;;1999.90;999.90;;;13.20;99.90;;;;;;5070251;28;20028;-77
2022/06/19 00:17:31;;;;;;;1999.90;999.90;;;13.30;99.90;;;;;;5053186;28;20035;-77
2022/06/19 00:19:57;;;;;;;1999.90;999.90;;;13.20;99.90;;;;;;5070376;28;20553;-78
2022/06/19 00:22:22;;;;;;;1999.90;999.90;;;13.30;99.90;;;;;;5055377;28;20032;-77
2022/06/19 00:24:48;;;;;;;1999.90;999.90;;;13.30;99.90;;;;;;5090668;28;20565;-78
2022/06/19 00:27:13;;;;;;;1999.90;999.90;;;13.30;99.90;;;;;;5086343;28;20075;-78
2022/06/19 00:29:39;;;;;;;1999.90;999.90;;;13.30;99.90;;;;;;5071807;28;20043;-77
2022/06/19 00:32:07;;;;;;;1999.90;999.90;;;13.30;99.90;;;;;;5054879;28;20047;-78
2022/06/19 00:34:36;;;;;;;1999.90;999.90;;;13.30;99.90;;;;;;5062666;28;20040;-78
2022/06/19 00:37:03;;;;;;;1999.90;999.90;;;13.30;99.90;;;;;;5070322;28;20521;-78
2022/06/19 00:39:28;;;;;;;1999.90;999.90;;;13.30;99.90;;;;;;5053751;28;20446;-77
2022/06/19 00:41:54;;;;;;;1999.90;999.90;;;13.40;99.90;;;;;;5071821;28;20040;-77
2022/06/19 00:44:21;;;;;;;1999.90;999.90;;;13.40;99.90;;;;;;5074223;28;20040;-78
2022/06/19 00:47:08;;;;;;;1999.90;999.90;;;13.40;99.90;;;;;;5066015;28;20040;-78
2022/06/19 00:49:53;;;;;;;1999.90;999.90;;;13.50;99.90;;;;;;5101094;28;20118;-78
2022/06/19 00:52:29;;;;;;;1999.90;999.90;;;13.50;99.90;;;;;;5067679;28;20125;-78
2022/06/19 00:55:11;;;;;;;1999.90;999.90;;;13.60;99.90;;;;;;5086750;28;20051;-78
2022/06/19 00:57:40;;;;;;;1999.90;999.90;;;13.70;99.90;;;;;;5069768;28;20039;-78
2022/06/19 01:00:10;;;;;;;1999.90;999.90;;;13.70;99.90;;;;;;5068778;28;20128;-78
2022/06/19 01:02:41;;;;;;;1999.90;999.90;;;13.70;99.90;;;;;;5102365;28;20040;-78
2022/06/19 01:05:09;;;;;;;1999.90;999.90;;;13.80;99.90;;;;;;5072205;28;20123;-78
2022/06/19 01:07:35;;;;;;;1999.90;999.90;;;13.80;99.90;;;;;;5104342;28;20040;-78
2022/06/19 01:10:01;;;;;;;1999.90;999.90;;;13.80;99.90;;;;;;5066220;28;20496;-78
2022/06/19 01:12:27;;;;;;;1999.90;999.90;;;13.80;99.90;;;;;;5053404;28;20170;-78
2022/06/19 01:15:08;;;;;;;1999.90;999.90;;;13.80;99.90;;;;;;5068099;28;20154;-78
2022/06/19 01:17:35;;;;;;;1999.90;999.90;;;13.90;99.90;;;;;;5070023;28;20036;-78
2022/06/19 01:20:04;;;;;;;1999.90;999.90;;;13.90;99.90;;;;;;5070053;28;20095;-76
2022/06/19 01:22:48;;;;;;;1999.90;999.90;;;14.00;99.90;;;;;;5062157;28;20080;-77
2022/06/19 01:25:18;;;;;;;1999.90;999.90;;;14.00;99.90;;;;;;5102856;28;20047;-77
2022/06/19 01:30:35;;;;;;;1999.90;999.90;;;14.10;99.90;;;;;;5084235;28;20059;-78
2022/06/19 01:33:03;;;;;;;1999.90;999.90;;;14.10;99.90;;;;;;5103507;28;20503;-78
2022/06/19 01:35:33;;;;;;;1999.90;999.90;;;14.10;99.90;;;;;;5103359;28;20087;-78
2022/06/19 01:38:03;;;;;;;1999.90;999.90;;;14.10;99.90;;;;;;5077437;28;20040;-78
2022/06/19 01:40:33;;;;;;;1999.90;999.90;;;14.10;99.90;;;;;;5064391;28;20588;-77
2022/06/19 01:42:58;;;;;;;1999.90;999.90;;;14.10;99.90;;;;;;5052944;28;20409;-78
2022/06/19 01:45:24;;;;;;;1999.90;999.90;;;14.10;99.90;;;;;;5102134;28;20040;-77
2022/06/19 01:47:50;;;;;;;1999.90;999.90;;;14.10;99.90;;;;;;5086606;28;20486;-77
2022/06/19 01:50:24;;;;;;;1999.90;999.90;;;14.00;99.90;;;;;;5075168;28;20035;-77
2022/06/19 01:52:54;;;;;;;1999.90;999.90;;;14.00;99.90;;;;;;5052301;28;20101;-77
2022/06/19 01:55:21;;;;;;;1999.90;999.90;;;13.90;99.90;;;;;;5052657;28;20497;-77
2022/06/19 01:57:52;;;;;;;1999.90;999.90;;;13.90;99.90;;;;;;5057771;28;20040;-78
2022/06/19 02:00:23;;;;;;;1999.90;999.90;;;13.90;99.90;;;;;;5073901;28;20526;-77
2022/06/19 02:03:00;;;;;;;1999.90;999.90;;;13.80;99.90;;;;;;5080171;28;20040;-77
2022/06/19 02:05:25;;;;;;;1999.90;999.90;;;13.80;99.90;;;;;;5093016;28;20043;-77
2022/06/19 02:07:51;;;;;;;1999.90;999.90;;;13.80;99.90;;;;;;5070718;28;20538;-77
2022/06/19 02:10:17;;;;;;;1999.90;999.90;;;13.80;99.90;;;;;;5081743;28;20063;-77
2022/06/19 02:12:43;;;;;;;1999.90;999.90;;;13.70;99.90;;;;;;5052146;28;20072;-77
2022/06/19 02:15:11;;;;;;;1999.90;999.90;;;13.70;99.90;;;;;;5084454;28;20040;-78
2022/06/19 02:17:42;;;;;;;1999.90;999.90;;;13.70;99.90;;;;;;5044296;28;20046;-78
2022/06/19 02:20:10;;;;;;;1999.90;999.90;;;13.70;99.90;;;;;;5067915;28;20452;-76
2022/06/19 02:22:35;;;;;;;1999.90;999.90;;;13.60;99.90;;;;;;5103538;28;20079;-76
2022/06/19 02:25:03;;;;;;;1999.90;999.90;;;13.70;99.90;;;;;;5085824;28;20068;-76
2022/06/19 02:27:32;;;;;;;1999.90;999.90;;;13.70;99.90;;;;;;5069798;28;20401;-76
2022/06/19 02:29:59;;;;;;;1999.90;999.90;;;13.70;99.90;;;;;;5072166;28;20410;-76
2022/06/19 02:32:33;;;;;;;1999.90;999.90;;;13.70;99.90;;;;;;5073229;28;20048;-76
2022/06/19 02:34:59;;;;;;;1999.90;999.90;;;13.70;99.90;;;;;;5068817;28;20044;-76
2022/06/19 02:37:26;;;;;;;1999.90;999.90;;;13.70;99.90;;;;;;5103802;27;20493;-76
2022/06/19 02:40:00;;;;;;;1999.90;999.90;;;13.70;99.90;;;;;;5089910;28;20466;-76
2022/06/19 02:42:41;;;;;;;1999.90;999.90;;;13.70;99.90;;;;;;5061908;28;20101;-77
2022/06/19 02:45:16;;;;;;;1999.90;999.90;;;13.70;99.90;;;;;;5088535;28;20046;-76
2022/06/19 02:47:59;;;;;;;1999.90;999.90;;;13.60;99.90;;;;;;5025105;28;20196;-76
2022/06/19 02:50:28;;;;;;;1999.90;999.90;;;13.70;99.90;;;;;;5011389;28;20080;-76
2022/06/19 02:52:54;;;;;;;1999.90;999.90;;;13.70;99.90;;;;;;4995707;28;20049;-77
2022/06/19 02:55:40;;;;;;;1999.90;999.90;;;13.70;99.90;;;;;;5026175;28;20130;-76
2022/06/19 02:58:21;;;;;;;1999.90;999.90;;;13.70;99.90;;;;;;4869361;29;20064;-76
2022/06/19 03:01:07;;;;;;;1999.90;999.90;;;13.70;99.90;;;;;;4836933;29;20053;-77
2022/06/19 03:03:35;;;;;;;1999.90;999.90;;;13.70;99.90;;;;;;4788075;29;20098;-77
2022/06/19 03:06:02;;;;;;;1999.90;999.90;;;13.70;99.90;;;;;;4803654;29;20077;-77
2022/06/19 03:08:28;;;;;;;1999.90;999.90;;;13.70;99.90;;;;;;4803768;29;20059;-77
2022/06/19 03:10:53;;;;;;;1999.90;999.90;;;13.70;99.90;;;;;;4801929;29;20118;-77
2022/06/19 03:13:21;;;;;;;1999.90;999.90;;;13.70;99.90;;;;;;4787259;29;20065;-77
2022/06/19 03:15:47;;;;;;;1999.90;999.90;;;13.70;99.90;;;;;;4787707;29;20046;-76
2022/06/19 03:18:13;;;;;;;1999.90;999.90;;;13.70;99.90;;;;;;4803889;29;20081;-76
2022/06/19 03:20:39;;;;;;;1999.90;999.90;;;13.70;99.90;;;;;;4799737;29;20099;-76
2022/06/19 03:23:04;;;;;;;1999.90;999.90;;;13.70;99.90;;;;;;4786146;29;20474;-77
2022/06/19 03:25:30;;;;;;;1999.90;999.90;;;13.70;99.90;;;;;;4824908;29;20528;-76
2022/06/19 03:27:57;;;;;;;1999.90;999.90;;;13.70;99.90;;;;;;4839642;29;20057;-76
2022/06/19 03:30:23;;;;;;;1999.90;999.90;;;13.70;99.90;;;;;;4839006;29;20049;-77
2022/06/19 03:32:48;;;;;;;1999.90;999.90;;;13.70;99.90;;;;;;4822379;29;20464;-77
2022/06/19 03:35:15;;;;;;;1999.90;999.90;;;13.60;99.90;;;;;;4878265;28;20046;-76
2022/06/19 03:37:41;;;;;;;1999.90;999.90;;;13.60;99.90;;;;;;4968489;28;20043;-78
2022/06/19 03:40:08;;;;;;;1999.90;999.90;;;13.60;99.90;;;;;;4987117;28;20059;-78
2022/06/19 03:42:34;;;;;;;1999.90;999.90;;;13.40;99.90;;;;;;5049566;28;20040;-79
2022/06/19 03:44:59;;;;;;;1999.90;999.90;;;13.20;99.90;;;;;;5055221;28;20080;-81
2022/06/19 03:47:26;;;;;;;1999.90;999.90;;;12.90;99.90;;;;;;5055772;28;20550;-82
2022/06/19 03:49:53;;;;;;;1999.90;999.90;;;12.80;99.90;;;;;;5105653;28;20051;-82
2022/06/19 03:52:19;;;;;;;1999.90;999.90;;;12.70;99.90;;;;;;5053945;28;20047;-81
2022/06/19 03:54:44;;;;;;;1999.90;999.90;;;12.50;99.90;;;;;;5076116;28;20445;-80
2022/06/19 03:57:12;;;;;;;1999.90;999.90;;;12.40;99.90;;;;;;5056533;28;20040;-81
2022/06/19 03:59:38;;;;;;;1999.90;999.90;;;12.30;99.90;;;;;;5070621;28;20036;-81
2022/06/19 04:02:05;;;;;;;1999.90;999.90;;;12.30;99.90;;;;;;5071555;28;20067;-80
2022/06/19 04:04:31;;;;;;;1999.90;999.90;;;12.30;99.90;;;;;;5070561;28;20498;-81
2022/06/19 04:06:57;;;;;;;1999.90;999.90;;;12.20;99.90;;;;;;5077922;28;20063;-81
2022/06/19 04:09:23;;;;;;;1999.90;999.90;;;12.20;99.90;;;;;;5085318;28;20124;-82
2022/06/19 04:11:48;;;;;;;1999.90;999.90;;;12.20;99.90;;;;;;5071219;28;20043;-82
2022/06/19 04:14:18;;;;;;;1999.90;999.90;;;12.10;99.90;;;;;;5067786;28;20214;-81
2022/06/19 04:16:43;;;;;;;1999.90;999.90;;;12.20;99.90;;;;;;5105717;28;20390;-81
2022/06/19 04:19:10;;;;;;;1999.90;999.90;;;12.10;99.90;;;;;;5071254;28;20047;-80
2022/06/19 04:21:41;;;;;;;1999.90;999.90;;;12.20;99.90;;;;;;5052807;28;20051;-80
2022/06/19 04:24:09;;;;;;;1999.90;999.90;;;12.10;99.90;;;;;;5071118;28;20040;-79
2022/06/19 04:26:37;;;;;;;1999.90;999.90;;;12.10;99.90;;;;;;5054391;28;20104;-80
2022/06/19 04:29:04;;;;;;;1999.90;999.90;;;12.10;99.90;;;;;;5054380;28;20402;-80
2022/06/19 04:31:32;;;;;;;1999.90;999.90;;;12.10;99.90;;;;;;5080171;28;20048;-80
2022/06/19 04:33:58;;;;;;;1999.90;999.90;;;12.00;99.90;;;;;;5071566;28;20108;-78
2022/06/19 04:36:28;;;;;;;1999.90;999.90;;;12.00;99.90;;;;;;5068955;28;20036;-80
2022/06/19 04:38:56;;;;;;;1999.90;999.90;;;12.00;99.90;;;;;;5052725;28;20066;-78
2022/06/19 04:41:39;;;;;;;1999.90;999.90;;;12.00;99.90;;;;;;5062934;28;20052;-80
2022/06/19 04:44:06;;;;;;;;;;;12.00;99.90;;;;;;5055649;28;20054;-80
2022/06/19 04:46:32;;;;;;;1999.90;999.90;;;12.00;99.90;;;;;;5066452;28;19967;-81
2022/06/19 04:48:58;;;;;;;1999.90;999.90;;;11.90;99.90;;;;;;5054241;28;20043;-81
2022/06/19 04:51:24;;;;;;;1999.90;999.90;;;12.00;99.90;;;;;;5099138;28;20041;-81
2022/06/19 04:53:50;;;;;;;1999.90;999.90;;;12.00;99.90;;;;;;5066252;28;20123;-81
2022/06/19 04:56:19;;;;;;;1999.90;999.90;;;12.10;99.90;;;;;;5072981;28;20035;-81
2022/06/19 05:01:41;;;;;;;1999.90;999.90;;;12.10;99.90;;;;;;4985558;28;20397;-81
2022/06/19 05:04:10;;;;;;;1999.90;999.90;;;12.10;99.90;;;;;;4972980;28;20100;-80
2022/06/19 05:06:36;;;;;;;1999.90;999.90;;;12.10;99.90;;;;;;4990241;28;20654;-81
2022/06/19 05:09:03;;;;;;;1999.90;999.90;;;12.10;99.90;;;;;;4981624;28;20100;-81
2022/06/19 05:11:32;;;;;;;1999.90;999.90;;;12.10;99.90;;;;;;4975200;28;20041;-81
2022/06/19 05:13:58;;;;;;;1999.90;999.90;;;12.10;99.90;;;;;;4989292;28;20046;-81
2022/06/19 05:16:45;;;;;;;1999.90;999.90;;;12.10;99.90;;;;;;4989304;28;20037;-81
2022/06/19 05:19:11;;;;;;;1999.90;999.90;;;12.20;99.90;;;;;;4908150;28;20103;-82
2022/06/19 05:21:36;;;;;;;1999.90;999.90;;;12.20;99.90;;;;;;4930988;29;20047;-81
2022/06/19 05:24:02;;;;;;;1999.90;999.90;;;12.20;99.90;;;;;;4931371;29;20061;-81
2022/06/19 05:26:33;;;;;;;1999.90;999.90;;;12.30;99.90;;;;;;4935687;28;20086;-81
2022/06/19 05:29:05;;;;;;;1999.90;999.90;;;12.30;99.90;;;;;;4930997;28;20051;-81
2022/06/19 05:31:32;;;;;;;1999.90;999.90;;;12.40;99.90;;;;;;4930412;29;20433;-81
2022/06/19 05:34:18;;;;;;;1999.90;999.90;;;12.40;99.90;;;;;;4931557;29;20409;-81
2022/06/19 05:39:32;;;;;;;1999.90;999.90;;;12.40;99.90;;;;;;4863517;29;20215;-81
2022/06/19 05:41:58;;;;;;;1999.90;999.90;;;12.50;99.90;;;;;;4874699;29;20196;-81
2022/06/19 05:44:25;;;;;;;1999.90;999.90;;;12.50;99.90;;;;;;4890197;29;20550;-80
2022/06/19 05:46:51;;;;;;;1999.90;999.90;;;12.40;99.90;;;;;;4873391;29;20127;-81
2022/06/19 05:49:17;;;;;;;1999.90;999.90;;;12.50;99.90;;;;;;4874810;29;20169;-81
2022/06/19 05:51:52;;;;;;;1999.90;999.90;;;12.40;99.90;;;;;;4874323;29;20057;-81
2022/06/19 05:54:17;;;;;;;1999.90;999.90;;;12.40;99.90;;;;;;4869415;29;20061;-81
2022/06/19 05:56:43;;;;;;;1999.90;999.90;;;12.30;99.90;;;;;;4913050;29;20063;-80
2022/06/19 05:59:09;;;;;;;1999.90;999.90;;;12.30;99.90;;;;;;4962594;28;20043;-81
2022/06/19 06:01:35;;;;;;;1999.90;999.90;;;12.20;99.90;;;;;;4915073;29;20146;-80
2022/06/19 06:04:00;;;;;;;1999.90;999.90;;;12.20;99.90;;;;;;4932566;28;20063;-81
2022/06/19 06:06:29;;;;;;;1999.90;999.90;;;12.10;99.90;;;;;;4936274;28;20046;-80
2022/06/19 06:08:55;;;;;;;1999.90;999.90;;;12.10;99.90;;;;;;4934311;29;20043;-81
2022/06/19 06:11:22;;;;;;;1999.90;999.90;;;12.10;99.90;;;;;;4918421;29;20087;-81
2022/06/19 06:13:48;;;;;;;1999.90;999.90;;;12.10;99.90;;;;;;4971439;28;20045;-81
2022/06/19 06:16:16;;;;;;;1999.90;999.90;;;12.10;99.90;;;;;;5034182;28;20055;-80
2022/06/19 06:18:43;;;;;;;1999.90;999.90;;;12.10;99.90;;;;;;5056455;28;20031;-80
2022/06/19 06:21:23;;;;;;;1999.90;999.90;;;12.10;99.90;;;;;;5056268;28;20097;-81
2022/06/19 06:23:49;;;;;;;1999.90;999.90;;;12.20;99.90;;;;;;5104944;28;20500;-81
2022/06/19 06:26:25;;;;;;;1999.90;999.90;;;12.20;99.90;;;;;;5091166;28;20409;-81
2022/06/19 06:28:52;;;;;;;1999.90;999.90;;;12.30;99.90;;;;;;5053196;28;20497;-81
2022/06/19 06:31:19;;;;;;;1999.90;999.90;;;12.30;99.90;;;;;;5072610;28;20044;-81
2022/06/19 06:33:46;;;;;;;1999.90;999.90;;;12.40;99.90;;;;;;5099330;28;20040;-80
2022/06/19 06:36:13;;;;;;;1999.90;999.90;;;12.50;99.90;;;;;;5073084;28;20141;-81
2022/06/19 06:38:39;;;;;;;1999.90;999.90;;;12.50;99.90;;;;;;5061941;28;20444;-81
2022/06/19 06:41:07;;;;;;;1999.90;999.90;;;12.50;99.90;;;;;;5066079;28;20055;-81
2022/06/19 06:43:35;;;;;;;1999.90;999.90;;;12.60;99.90;;;;;;5052786;28;20447;-81
2022/06/19 06:46:10;;;;;;;1999.90;999.90;;;12.60;99.90;;;;;;5055679;28;20140;-81
2022/06/19 06:48:37;;;;;;;1999.90;999.90;;;12.70;99.90;;;;;;5071599;28;20036;-81
2022/06/19 06:51:10;;;;;;;1999.90;999.90;;;12.70;99.90;;;;;;5044837;28;20501;-81
2022/06/19 06:53:36;;;;;;;1999.90;999.90;;;12.80;99.90;;;;;;5067977;28;20031;-81
2022/06/19 06:56:02;;;;;;;1999.90;999.90;;;12.80;99.90;;;;;;5055969;28;20431;-81
2022/06/19 06:58:28;;;;;;;1999.90;999.90;;;12.80;99.90;;;;;;5068859;28;20063;-81
2022/06/19 07:00:54;;;;;;;1999.90;999.90;;;12.90;99.90;;;;;;5075957;28;20052;-81
2022/06/19 07:03:21;;;;;;;1999.90;999.90;;;12.90;99.90;;;;;;5053389;28;20506;-81
2022/06/19 07:05:47;;;;;;;1999.90;999.90;;;13.00;99.90;;;;;;5054352;28;20545;-81
2022/06/19 07:08:12;;;;;;;1999.90;999.90;;;13.00;99.90;;;;;;5053257;28;20123;-81
2022/06/19 07:10:38;;;;;;;1999.90;999.90;;;13.00;99.90;;;;;;5088568;28;20036;-81
2022/06/19 07:13:04;;;;;;;1999.90;999.90;;;13.00;99.90;;;;;;5088856;28;20044;-81
2022/06/19 07:15:30;;;;;;;1999.90;999.90;;;13.00;99.90;;;;;;5087511;28;20101;-81
2022/06/19 07:17:56;;;;;;;1999.90;999.90;;;13.00;99.90;;;;;;5071153;28;20131;-82
2022/06/19 07:20:21;;;;;;;1999.90;999.90;;;13.10;99.90;;;;;;5074034;28;20569;-81
2022/06/19 07:22:47;;;;;;;1999.90;999.90;;;13.10;99.90;;;;;;5052921;28;20112;-81
2022/06/19 07:25:18;;;;;;;1999.90;999.90;;;13.20;99.90;;;;;;5089377;28;20067;-81
2022/06/19 07:27:45;;;;;;;1999.90;999.90;;;13.20;99.90;;;;;;5105814;28;20036;-80
2022/06/19 07:30:20;;;;;;;1999.90;999.90;;;13.30;99.90;;;;;;5075962;28;20082;-81
2022/06/19 07:32:46;;;;;;;1999.90;999.90;;;13.40;99.90;;;;;;5055627;28;20512;-81
2022/06/19 07:35:12;;;;;;;1999.90;999.90;;;13.40;99.90;;;;;;5071354;28;20130;-81
2022/06/19 07:37:37;;;;;;;1999.90;999.90;;;13.50;99.90;;;;;;5104413;28;20040;-81
2022/06/19 07:40:04;;;;;;;1999.90;999.90;;;13.50;99.90;;;;;;5078657;28;20138;-81
2022/06/19 07:42:29;;;;;;;1999.90;999.90;;;13.60;99.90;;;;;;5072172;28;20094;-81
2022/06/19 07:44:55;;;;;;;1999.90;999.90;;;13.60;99.90;;;;;;5057845;28;20485;-81
2022/06/19 07:50:23;;;;;;;1999.90;999.90;;;13.60;99.90;;;;;;5017133;28;20130;-81
2022/06/19 07:52:50;;;;;;;1999.90;999.90;;;13.60;99.90;;;;;;5058209;28;20494;-81
2022/06/19 07:55:19;;;;;;;1999.90;999.90;;;13.60;99.90;;;;;;5054417;28;20113;-80
2022/06/19 07:57:45;;;;;;;1999.90;999.90;;;13.60;99.90;;;;;;5046003;28;20131;-81
2022/06/19 08:00:16;;;;;;;1999.90;999.90;;;13.60;99.90;;;;;;5105583;28;20052;-81
2022/06/19 08:02:48;;;;;;;1999.90;999.90;;;13.60;99.90;;;;;;5081214;28;20036;-81
2022/06/19 08:05:15;;;;;;;1999.90;999.90;;;13.60;99.90;;;;;;5065193;28;20045;-81
2022/06/19 08:07:41;;;;;;;1999.90;999.90;;;13.60;99.90;;;;;;5084099;28;20327;-81
2022/06/19 08:10:08;;;;;;;1999.90;999.90;;;13.60;99.90;;;;;;5093789;28;20043;-81
2022/06/19 08:12:34;;;;;;;1999.90;999.90;;;13.60;99.90;;;;;;5088867;28;20044;-81
2022/06/19 08:15:00;;;;;;;1999.90;999.90;;;13.60;99.90;;;;;;5085569;28;20126;-81
2022/06/19 08:17:25;;;;;;;1999.90;999.90;;;13.60;99.90;;;;;;5072225;28;20133;-81
2022/06/19 08:19:51;;;;;;;1999.90;999.90;;;13.60;99.90;;;;;;5066997;28;20055;-81
2022/06/19 08:22:17;;;;;;;1999.90;999.90;;;13.50;99.90;;;;;;5062334;28;20047;-81
2022/06/19 08:24:42;;;;;;;1999.90;999.90;;;13.60;99.90;;;;;;5069796;28;20382;-81
2022/06/19 08:27:08;;;;;;;1999.90;999.90;;;13.60;99.90;;;;;;5042785;28;20456;-81
2022/06/19 08:29:35;;;;;;;1999.90;999.90;;;13.70;99.90;;;;;;5052486;28;20455;-80
2022/06/19 08:32:01;;;;;;;1999.90;999.90;;;13.90;99.90;;;;;;5107646;27;20166;-80
2022/06/19 08:34:27;;;;;;;1999.90;999.90;;;14.00;99.90;;;;;;5057013;28;20027;-80
2022/06/19 08:36:54;;;;;;;1999.90;999.90;;;14.10;99.90;;;;;;5059252;28;20116;-80
2022/06/19 08:39:20;;;;;;;1999.90;999.90;;;14.20;99.90;;;;;;5074990;28;20509;-80
2022/06/19 08:42:23;;;;;;;1999.90;999.90;;;14.40;99.90;;;;;;5056905;28;20044;-80
2022/06/19 08:45:08;;;;;;;1999.90;999.90;;;14.40;99.90;;;;;;5065634;28;20051;-80
2022/06/19 08:47:46;;;;;;;1999.90;999.90;;;14.30;99.90;;;;;;5069925;28;20048;-80
2022/06/19 08:50:23;;;;;;;1999.90;999.90;;;14.40;99.90;;;;;;5072093;28;20489;-80
2022/06/19 08:52:51;;;;;;;1999.90;999.90;;;14.30;99.90;;;;;;5087683;28;20075;-80
2022/06/19 08:55:26;;;;;;;1999.90;999.90;;;14.30;99.90;;;;;;5086734;28;20044;-80
2022/06/19 08:58:16;;;;;;;1999.90;999.90;;;14.30;99.90;;;;;;5099691;27;20032;-80
2022/06/19 09:01:15;;;;;;;1999.90;999.90;;;14.30;99.90;;;;;;5052915;28;20039;-81
2022/06/19 09:07:18;;;;;;;1999.90;999.90;;;14.40;99.90;;;;;;5104688;28;20079;-81
2022/06/19 09:10:09;;;;;;;1999.90;999.90;;;14.50;99.90;;;;;;5095568;28;20126;-81
2022/06/19 09:13:25;;;;;;;1999.90;999.90;;;14.50;99.90;;;;;;5096449;28;20077;-81
2022/06/19 09:16:03;;;;;;;1999.90;999.90;;;14.40;99.90;;;;;;5017291;28;20587;-81
2022/06/19 09:18:39;;;;;;;1999.90;999.90;;;14.40;99.90;;;;;;5022158;28;20046;-80
2022/06/19 09:21:19;;;;;;;1999.90;999.90;;;14.40;99.90;;;;;;4989671;28;20155;-80
2022/06/19 09:23:54;;;;;;;1999.90;999.90;;;14.40;99.90;;;;;;5002039;28;20049;-81
2022/06/19 09:26:36;;;;;;;1999.90;999.90;;;14.60;99.90;;;;;;4972862;28;20062;-80
2022/06/19 09:29:12;;;;;;;1999.90;999.90;;;14.70;99.90;;;;;;5023193;28;20125;-81
2022/06/19 09:31:45;;;;;;;1999.90;999.90;;;14.70;99.90;;;;;;5021789;28;20050;-80
2022/06/19 09:34:41;;;;;;;1999.90;999.90;;;14.70;99.90;;;;;;5019584;28;20120;-80
2022/06/19 09:37:34;;;;;;;1999.90;999.90;;;14.70;99.90;;;;;;4999392;28;20039;-81
2022/06/19 09:40:25;;;;;;;1999.90;999.90;;;14.80;99.90;;;;;;5005415;28;20054;-80
2022/06/19 09:42:57;;;;;;;1999.90;999.90;;;14.90;99.90;;;;;;4997563;28;20444;-80
2022/06/19 09:45:32;;;;;;;1999.90;999.90;;;14.90;99.90;;;;;;4969612;28;20046;-80
2022/06/19 09:48:23;;;;;;;1999.90;999.90;;;14.90;99.90;;;;;;5004122;28;20085;-80
2022/06/19 09:51:00;;;;;;;1999.90;999.90;;;15.00;99.90;;;;;;5018740;28;20422;-80
2022/06/19 09:54:06;;;;;;;1999.90;999.90;;;15.10;99.90;;;;;;5083730;28;20047;-80
2022/06/19 09:56:52;;;;;;;1999.90;999.90;;;15.20;99.90;;;;;;5025013;28;20040;-80
2022/06/19 09:59:21;;;;;;;1999.90;999.90;;;15.30;99.90;;;;;;5062063;28;20903;-80
2022/06/19 10:01:56;;;;;;;1999.90;999.90;;;15.40;99.90;;;;;;5009622;28;20069;-81
2022/06/19 10:04:43;;;;;;;1999.90;999.90;;;15.40;99.90;;;;;;5061963;28;20045;-80
2022/06/19 10:07:26;;;;;;;1999.90;999.90;;;15.50;99.90;;;;;;5026309;28;20041;-80
2022/06/19 10:10:04;;;;;;;1999.90;999.90;;;15.50;99.90;;;;;;5042594;28;20048;-80
2022/06/19 10:12:39;;;;;;;1999.90;999.90;;;15.70;99.90;;;;;;5027868;28;20562;-80
2022/06/19 10:15:14;;;;;;;1999.90;999.90;;;15.80;99.90;;;;;;5057128;28;20127;-80
2022/06/19 10:17:55;;;;;;;1999.90;999.90;;;16.00;99.90;;;;;;5028001;28;20102;-81
2022/06/19 10:20:45;;;;;;;1999.90;999.90;;;16.10;99.90;;;;;;5028610;28;20135;-81
2022/06/19 10:23:16;;;;;;;1999.90;999.90;;;16.10;99.90;;;;;;5041606;28;20417;-80
2022/06/19 10:25:44;;;;;;;1999.90;999.90;;;16.10;99.90;;;;;;5069142;28;20079;-80
2022/06/19 10:28:48;;;;;;;1999.90;999.90;;;16.30;99.90;;;;;;5020878;28;20045;-80
2022/06/19 10:31:52;;;;;;;1999.90;999.90;;;16.40;99.90;;;;;;5087739;28;20075;-79
2022/06/19 10:35:03;;;;;;;1999.90;999.90;;;16.50;99.90;;;;;;5065665;28;20398;-80
2022/06/19 10:38:03;;;;;;;1999.90;999.90;;;16.70;99.90;;;;;;4965888;28;20517;-80
2022/06/19 10:40:41;;;;;;;1999.90;999.90;;;16.80;99.90;;;;;;4968214;28;20583;-80
2022/06/19 10:43:37;;;;;;;1999.90;999.90;;;16.80;99.90;;;;;;4963289;28;20038;-80
2022/06/19 10:46:07;;;;;;;1999.90;999.90;;;16.80;99.90;;;;;;4968375;28;20070;-80
2022/06/19 10:49:00;;;;;;;1999.90;999.90;;;17.10;99.90;;;;;;4968056;28;20512;-80
2022/06/19 10:51:50;;;;;;;1999.90;999.90;;;17.50;99.90;;;;;;4972134;28;20053;-80
2022/06/19 10:54:24;;;;;;;1999.90;999.90;;;17.60;99.90;;;;;;4966300;28;20126;-79
2022/06/19 10:56:56;;;;;;;1999.90;999.90;;;17.70;99.90;;;;;;4955207;28;20039;-80
2022/06/19 10:59:23;;;;;;;1999.90;999.90;;;17.80;99.90;;;;;;4971791;28;20125;-80
2022/06/19 11:04:57;;;;;;;1999.90;999.90;;;18.10;99.90;;;;;;4972362;28;20074;-78
2022/06/19 11:07:26;;;;;;;1999.90;999.90;;;18.00;99.90;;;;;;4970084;28;20602;-79
2022/06/19 11:09:55;;;;;;;1999.90;999.90;;;17.90;99.90;;;;;;4964832;28;20527;-79
2022/06/19 11:12:32;;;;;;;1999.90;999.90;;;17.90;99.90;;;;;;4966112;28;20049;-79
2022/06/19 11:15:01;;;;;;;1999.90;999.90;;;17.60;99.90;;;;;;5047691;28;20055;-79
2022/06/19 11:17:34;;;;;;;1999.90;999.90;;;17.50;99.90;;;;;;5097491;28;20040;-79
2022/06/19 11:20:20;;;;;;;1999.90;999.90;;;17.10;99.90;;;;;;5053460;28;20070;-79
2022/06/19 11:22:48;;;;;;;1999.90;999.90;;;16.80;99.90;;;;;;5058870;28;20055;-79
2022/06/19 11:25:23;;;;;;;1999.90;999.90;;;16.60;99.90;;;;;;5068149;28;20067;-79
2022/06/19 11:27:52;;;;;;;1999.90;999.90;;;16.40;99.90;;;;;;5059954;28;20067;-80
2022/06/19 11:30:29;;;;;;;1999.90;999.90;;;16.20;99.90;;;;;;5063050;28;20076;-79
2022/06/19 11:32:55;;;;;;;1999.90;999.90;;;16.00;99.90;;;;;;5066538;28;20050;-80
2022/06/19 11:35:22;;;;;;;1999.90;999.90;;;15.90;99.90;;;;;;5066271;28;20112;-79
2022/06/19 11:37:56;;;;;;;1999.90;999.90;;;15.80;99.90;;;;;;5065020;28;20090;-78
2022/06/19 11:40:32;;;;;;;1999.90;999.90;;;15.60;99.90;;;;;;5089114;28;20048;-79
2022/06/19 11:43:00;;;;;;;1999.90;999.90;;;15.60;99.90;;;;;;5081593;28;20039;-80
2022/06/19 11:45:35;;;;;;;1999.90;999.90;;;15.50;99.90;;;;;;5053286;28;20509;-80
2022/06/19 11:48:13;;;;;;;1999.90;999.90;;;15.40;99.90;;;;;;5054374;28;20086;-80
2022/06/19 11:50:50;;;;;;;1999.90;999.90;;;15.40;99.90;;;;;;5096465;28;20101;-79
2022/06/19 11:53:39;;;;;;;1999.90;999.90;;;15.40;99.90;;;;;;5065200;28;20032;-79
2022/06/19 11:56:25;;;;;;;1999.90;999.90;;;15.40;99.90;;;;;;5061802;28;20174;-79
2022/06/19 11:59:04;;;;;;;1999.90;999.90;;;15.50;99.90;;;;;;5073115;28;20428;-78
2022/06/19 12:01:42;;;;;;;1999.90;999.90;;;15.60;99.90;;;;;;5063706;28;20466;-79
2022/06/19 12:04:30;;;;;;;1999.90;999.90;;;15.60;99.90;;;;;;5070015;28;20581;-79
2022/06/19 12:07:02;;;;;;;1999.90;999.90;;;15.60;99.90;;;;;;5051616;28;20036;-79
2022/06/19 12:09:54;;;;;;;1999.90;999.90;;;15.60;99.90;;;;;;5101973;28;20596;-79
2022/06/19 12:12:21;;;;;;;1999.90;999.90;;;15.60;99.90;;;;;;5100358;28;20135;-79
2022/06/19 12:14:46;;;;;;;1999.90;999.90;;;15.70;99.90;;;;;;5052306;28;20509;-79
2022/06/19 12:17:15;;;;;;;1999.90;999.90;;;15.70;99.90;;;;;;5060564;28;20036;-79
2022/06/19 12:20:07;;;;;;;1999.90;999.90;;;15.70;99.90;;;;;;5094916;28;20050;-79
2022/06/19 12:22:52;;;;;;;1999.90;999.90;;;15.90;99.90;;;;;;5069538;28;20059;-79
2022/06/19 12:25:33;;;;;;;1999.90;999.90;;;16.20;99.90;;;;;;5060224;28;20286;-79
2022/06/19 12:28:14;;;;;;;1999.90;999.90;;;16.80;99.90;;;;;;5069380;28;20035;-79
2022/06/19 12:30:58;;;;;;;1999.90;999.90;;;17.40;99.90;;;;;;5068455;28;20522;-79
2022/06/19 12:33:31;;;;;;;1999.90;999.90;;;17.70;99.90;;;;;;5061826;28;20028;-79
2022/06/19 12:35:58;;;;;;;1999.90;999.90;;;17.80;99.90;;;;;;5066479;28;20044;-79
2022/06/19 12:38:24;;;;;;;1999.90;999.90;;;18.00;99.90;;;;;;5068155;28;20065;-78